createdAt,value
2023-02-09T00:00:09.529Z,102647.72
2023-02-09T00:02:44.803Z,102648.78
2023-02-09T00:05:14.590Z,102649.88
2023-02-09T00:07:41.192Z,102652.22
2023-02-09T00:10:08.258Z,102655.38
2023-02-09T00:12:55.518Z,102649.13
2023-02-09T00:15:22.129Z,102651.78
2023-02-09T00:17:48.743Z,102653.28
2023-02-09T00:20:15.305Z,102644.91
2023-02-09T00:22:41.898Z,102642.63
2023-02-09T00:25:08.483Z,102635.13
2023-02-09T00:27:35.831Z,102650.25
2023-02-09T00:30:04.398Z,102648.16
2023-02-09T00:32:33.031Z,102640.41
2023-02-09T00:34:59.616Z,102628.94
2023-02-09T00:37:28.044Z,102626.22
2023-02-09T00:39:54.693Z,102634.16
2023-02-09T00:42:21.193Z,102626.91
2023-02-09T00:44:47.765Z,102628.72
2023-02-09T00:47:14.704Z,102635.03
2023-02-09T00:49:41.377Z,102617.31
2023-02-09T00:52:09.935Z,102617.03
2023-02-09T00:54:37.119Z,102623.47
2023-02-09T00:57:05.489Z,102607.16
2023-02-09T00:59:34.891Z,102612.00
2023-02-09T01:02:02.609Z,102614.41
2023-02-09T01:04:29.399Z,102614.38
2023-02-09T01:06:56.128Z,102619.16
2023-02-09T01:09:22.764Z,102611.38
2023-02-09T01:11:49.465Z,102614.66
2023-02-09T01:14:16.550Z,102617.50
2023-02-09T01:16:43.260Z,102619.66
2023-02-09T01:19:12.127Z,102614.25
2023-02-09T01:21:39.005Z,102618.25
2023-02-09T01:24:06.107Z,102622.81
2023-02-09T01:26:33.035Z,102604.97
2023-02-09T01:28:59.608Z,102605.72
2023-02-09T01:31:32.234Z,102606.25
2023-02-09T01:34:01.723Z,102607.50
2023-02-09T01:36:29.738Z,102597.94
2023-02-09T01:38:58.111Z,102606.50
2023-02-09T01:41:25.265Z,102614.56
2023-02-09T01:44:05.221Z,102622.19
2023-02-09T01:46:36.243Z,102606.69
2023-02-09T01:49:03.047Z,102610.53
2023-02-09T01:51:33.005Z,102607.56
2023-02-09T01:53:59.746Z,102591.38
2023-02-09T01:56:30.821Z,102596.00
2023-02-09T01:58:58.545Z,102603.06
2023-02-09T02:01:26.816Z,102594.81
2023-02-09T02:03:54.446Z,102593.19
2023-02-09T02:06:21.504Z,102586.91
2023-02-09T02:09:04.686Z,102581.50
2023-02-09T02:11:32.885Z,102579.28
2023-02-09T02:13:59.755Z,102575.50
2023-02-09T02:16:48.574Z,102581.81
2023-02-09T02:20:12.739Z,102577.34
2023-02-09T02:22:52.199Z,102566.53
2023-02-09T02:25:34.848Z,102565.09
2023-02-09T02:28:16.993Z,102567.59
2023-02-09T02:31:08.279Z,102562.66
2023-02-09T02:34:11.195Z,102562.66
2023-02-09T02:36:57.954Z,102563.56
2023-02-09T02:39:33.615Z,102559.53
2023-02-09T02:42:32.515Z,102568.34
2023-02-09T02:45:12.161Z,102566.00
2023-02-09T02:47:40.453Z,102558.66
2023-02-09T02:50:15.151Z,102553.56
2023-02-09T02:52:46.428Z,102552.22
2023-02-09T02:55:17.326Z,102550.28
2023-02-09T02:57:48.364Z,102552.22
2023-02-09T03:00:32.197Z,102566.28
2023-02-09T03:03:03.869Z,102550.88
2023-02-09T03:05:32.033Z,102556.84
2023-02-09T03:07:58.763Z,102552.22
2023-02-09T03:10:37.784Z,102558.94
2023-02-09T03:13:13.457Z,102552.22
2023-02-09T03:16:03.103Z,102548.00
2023-02-09T03:18:40.437Z,102547.13
2023-02-09T03:21:25.109Z,102549.09
2023-02-09T03:23:58.966Z,102548.75
2023-02-09T03:26:30.294Z,102550.13
2023-02-09T03:28:59.025Z,102548.47
2023-02-09T03:31:27.999Z,102542.50
2023-02-09T03:33:57.482Z,102550.13
2023-02-09T03:36:25.661Z,102552.84
2023-02-09T03:38:52.294Z,102549.66
2023-02-09T03:41:19.200Z,102550.13
2023-02-09T03:44:04.150Z,102554.44
2023-02-09T03:46:33.329Z,102553.44
2023-02-09T03:49:00.061Z,102550.41
2023-02-09T03:51:26.780Z,102552.06
2023-02-09T03:53:53.411Z,102551.00
2023-02-09T03:56:19.977Z,102547.13
2023-02-09T03:58:46.561Z,102543.22
2023-02-09T04:01:13.172Z,102540.41
2023-02-09T04:03:39.871Z,102526.19
2023-02-09T04:06:09.920Z,102522.28
2023-02-09T04:08:36.700Z,102531.28
2023-02-09T04:11:03.659Z,102533.19
2023-02-09T04:13:30.252Z,102524.38
2023-02-09T04:15:56.833Z,102530.34
2023-02-09T04:18:23.469Z,102530.19
2023-02-09T04:20:50.108Z,102527.97
2023-02-09T04:23:17.332Z,102525.56
2023-02-09T04:25:44.734Z,102523.63
2023-02-09T04:28:11.464Z,102519.44
2023-02-09T04:30:38.194Z,102513.91
2023-02-09T04:33:04.884Z,102516.44
2023-02-09T04:35:31.539Z,102507.59
2023-02-09T04:37:58.111Z,102508.19
2023-02-09T04:40:24.642Z,102504.63
2023-02-09T04:42:51.256Z,102514.81
2023-02-09T04:45:17.961Z,102505.50
2023-02-09T04:47:44.558Z,102501.16
2023-02-09T04:50:15.044Z,102502.53
2023-02-09T04:52:41.592Z,102501.00
2023-02-09T04:55:08.435Z,102498.63
2023-02-09T04:57:53.707Z,102492.78
2023-02-09T05:00:20.420Z,102495.03
2023-02-09T05:02:46.961Z,102497.88
2023-02-09T05:05:13.616Z,102505.50
2023-02-09T05:07:40.508Z,102498.03
2023-02-09T05:10:07.315Z,102502.53
2023-02-09T05:12:33.872Z,102490.56
2023-02-09T05:15:00.470Z,102489.19
2023-02-09T05:17:27.037Z,102488.31
2023-02-09T05:19:53.679Z,102480.06
2023-02-09T05:22:20.286Z,102479.16
2023-02-09T05:24:46.834Z,102471.69
2023-02-09T05:27:13.477Z,102466.59
2023-02-09T05:29:40.133Z,102467.97
2023-02-09T05:32:06.836Z,102476.19
2023-02-09T05:34:33.542Z,102473.94
2023-02-09T05:37:00.111Z,102479.47
2023-02-09T05:39:26.728Z,102489.97
2023-02-09T05:42:11.955Z,102503.41
2023-02-09T05:44:38.545Z,102502.97
2023-02-09T05:47:05.170Z,102500.72
2023-02-09T05:49:31.844Z,102505.50
2023-02-09T05:51:58.421Z,102505.50
2023-02-09T05:54:25.067Z,102491.44
2023-02-09T05:56:51.729Z,102494.44
2023-02-09T05:59:18.491Z,102487.56
2023-02-09T06:01:45.075Z,102475.59
2023-02-09T06:04:11.991Z,102478.41
2023-02-09T06:06:38.556Z,102469.75
2023-02-09T06:09:05.351Z,102468.69
2023-02-09T06:11:31.940Z,102461.22
2023-02-09T06:13:58.710Z,102469.47
2023-02-09T06:16:25.917Z,102465.41
2023-02-09T06:18:52.594Z,102485.59
2023-02-09T06:21:19.296Z,102498.94
2023-02-09T06:23:46.137Z,102500.44
2023-02-09T06:26:15.881Z,102508.06
2023-02-09T06:28:43.122Z,102508.81
2023-02-09T06:31:10.380Z,102512.53
2023-02-09T06:33:38.072Z,102511.19
2023-02-09T06:36:06.142Z,102504.56
2023-02-09T06:38:34.375Z,102500.56
2023-02-09T06:41:01.089Z,102512.09
2023-02-09T06:43:27.779Z,102513.56
2023-02-09T06:45:54.542Z,102519.56
2023-02-09T06:48:21.202Z,102518.53
2023-02-09T06:50:48.193Z,102527.63
2023-02-09T06:53:16.075Z,102532.28
2023-02-09T06:55:42.694Z,102538.69
2023-02-09T06:58:09.627Z,102531.97
2023-02-09T07:00:36.322Z,102531.97
2023-02-09T07:03:03.359Z,102535.72
2023-02-09T07:05:31.419Z,102540.81
2023-02-09T07:07:58.049Z,102545.00
2023-02-09T07:10:25.062Z,102554.88
2023-02-09T07:12:51.702Z,102546.97
2023-02-09T07:15:18.399Z,102553.97
2023-02-09T07:17:45.004Z,102551.63
2023-02-09T07:20:12.661Z,102545.91
2023-02-09T07:22:39.286Z,102546.81
2023-02-09T07:25:06.346Z,102540.38
2023-02-09T07:27:32.925Z,102539.63
2023-02-09T07:30:01.078Z,102542.19
2023-02-09T07:32:28.030Z,102538.28
2023-02-09T07:34:54.641Z,102538.28
2023-02-09T07:37:21.196Z,102526.47
2023-02-09T07:39:48.018Z,102523.47
2023-02-09T07:42:14.743Z,102517.19
2023-02-09T07:44:48.927Z,102513.44
2023-02-09T07:47:15.624Z,102509.38
2023-02-09T07:49:42.371Z,102507.00
2023-02-09T07:52:08.960Z,102501.88
2023-02-09T07:54:35.573Z,102501.22
2023-02-09T07:57:02.111Z,102504.50
2023-02-09T07:59:28.780Z,102509.28
2023-02-09T08:01:55.410Z,102517.34
2023-02-09T08:04:22.785Z,102523.28
2023-02-09T08:06:49.631Z,102510.44
2023-02-09T08:09:19.481Z,102525.56
2023-02-09T08:11:58.465Z,102519.13
2023-02-09T08:14:39.944Z,102512.16
2023-02-09T08:17:24.391Z,102512.38
2023-02-09T08:20:06.503Z,102502.88
2023-02-09T08:22:38.521Z,102518.13
2023-02-09T08:25:06.171Z,102512.72
2023-02-09T08:27:32.956Z,102533.00
2023-02-09T08:30:00.642Z,102531.66
2023-02-09T08:32:27.289Z,102534.66
2023-02-09T08:34:53.894Z,102538.00
2023-02-09T08:37:20.499Z,102536.25
2023-02-09T08:39:47.157Z,102531.97
2023-02-09T08:42:13.721Z,102544.59
2023-02-09T08:44:40.289Z,102556.50
2023-02-09T08:47:06.827Z,102561.72
2023-02-09T08:49:33.493Z,102552.53
2023-02-09T08:52:00.057Z,102547.41
2023-02-09T08:54:27.041Z,102538.88
2023-02-09T08:56:53.806Z,102542.81
2023-02-09T08:59:21.894Z,102550.78
2023-02-09T09:01:48.485Z,102558.59
2023-02-09T09:04:15.092Z,102556.06
2023-02-09T09:06:42.764Z,102561.56
2023-02-09T09:09:11.679Z,102564.94
2023-02-09T09:11:38.660Z,102566.91
2023-02-09T09:14:05.294Z,102570.41
2023-02-09T09:16:32.138Z,102562.88
2023-02-09T09:18:59.229Z,102565.13
2023-02-09T09:21:26.019Z,102569.75
2023-02-09T09:23:52.789Z,102567.47
2023-02-09T09:26:19.436Z,102567.97
2023-02-09T09:28:50.146Z,102573.88
2023-02-09T09:31:18.205Z,102572.75
2023-02-09T09:33:45.603Z,102563.41
2023-02-09T09:36:14.574Z,102569.91
2023-02-09T09:38:41.260Z,102568.66
2023-02-09T09:41:32.019Z,102568.16
2023-02-09T09:44:00.638Z,102559.56
2023-02-09T09:46:39.929Z,102567.50
2023-02-09T09:49:07.686Z,102567.09
2023-02-09T09:51:44.608Z,102569.00
2023-02-09T09:54:20.197Z,102566.34
2023-02-09T09:56:47.843Z,102560.78
2023-02-09T09:59:21.704Z,102563.22
2023-02-09T10:01:51.253Z,102558.56
2023-02-09T10:04:18.193Z,102566.16
2023-02-09T10:06:56.421Z,102555.91
2023-02-09T10:09:33.441Z,102554.09
2023-02-09T10:12:36.947Z,102566.63
2023-02-09T10:15:36.739Z,102571.63
2023-02-09T10:18:06.549Z,102562.84
2023-02-09T10:20:49.521Z,102560.41
2023-02-09T10:23:22.166Z,102545.13
2023-02-09T10:25:57.378Z,102525.63
2023-02-09T10:28:27.196Z,102515.63
2023-02-09T10:30:55.995Z,102545.00
2023-02-09T10:33:22.597Z,102519.75
2023-02-09T10:35:55.212Z,102535.28
2023-02-09T10:38:26.155Z,102541.25
2023-02-09T10:40:53.154Z,102534.09
2023-02-09T10:43:25.965Z,102547.97
2023-02-09T10:45:56.380Z,102534.34
2023-02-09T10:48:25.169Z,102530.97
2023-02-09T10:51:05.232Z,102538.94
2023-02-09T10:53:38.544Z,102523.25
2023-02-09T10:56:14.351Z,102532.53
2023-02-09T10:58:41.062Z,102527.50
2023-02-09T11:01:26.454Z,102526.69
2023-02-09T11:04:05.180Z,102534.03
2023-02-09T11:06:59.181Z,102531.13
2023-02-09T11:09:33.273Z,102535.03
2023-02-09T11:12:00.474Z,102521.88
2023-02-09T11:14:27.514Z,102519.34
2023-02-09T11:17:28.267Z,102522.22
2023-02-09T11:20:23.347Z,102519.34
2023-02-09T11:23:11.437Z,102510.09
2023-02-09T11:25:45.406Z,102515.53
2023-02-09T11:28:39.633Z,102517.31
2023-02-09T11:31:31.213Z,102501.97
2023-02-09T11:34:43.465Z,102504.75
2023-02-09T11:37:21.918Z,102498.00
2023-02-09T11:39:57.510Z,102501.47
2023-02-09T11:42:46.970Z,102503.53
2023-02-09T11:45:20.656Z,102503.97
2023-02-09T11:48:05.841Z,102510.06
2023-02-09T11:50:38.560Z,102496.84
2023-02-09T11:53:37.098Z,102494.16
2023-02-09T11:56:11.220Z,102493.47
2023-02-09T11:58:47.297Z,102491.59
2023-02-09T12:01:48.812Z,102485.22
2023-02-09T12:04:24.676Z,102484.13
2023-02-09T12:06:55.880Z,102495.03
2023-02-09T12:09:43.520Z,102493.63
2023-02-09T12:12:31.386Z,102501.09
2023-02-09T12:15:00.873Z,102503.16
2023-02-09T12:17:41.437Z,102494.00
2023-02-09T12:20:28.391Z,102495.50
2023-02-09T12:22:58.073Z,102492.44
2023-02-09T12:25:45.808Z,102491.41
2023-02-09T12:28:14.508Z,102479.66
2023-02-09T12:30:41.136Z,102482.69
2023-02-09T12:33:17.383Z,102485.69
2023-02-09T12:36:00.938Z,102468.13
2023-02-09T12:38:49.305Z,102477.19
2023-02-09T12:41:18.854Z,102463.22
2023-02-09T12:43:46.417Z,102471.31
2023-02-09T12:46:15.266Z,102476.19
2023-02-09T12:49:01.638Z,102483.75
2023-02-09T12:52:00.638Z,102486.56
2023-02-09T12:54:46.634Z,102474.44
2023-02-09T12:57:16.617Z,102472.19
2023-02-09T12:59:52.359Z,102470.59
2023-02-09T13:02:50.580Z,102465.84
2023-02-09T13:05:18.640Z,102468.56
2023-02-09T13:07:54.360Z,102463.50
2023-02-09T13:10:42.637Z,102466.78
2023-02-09T13:13:11.965Z,102457.72
2023-02-09T13:15:47.896Z,102462.94
2023-02-09T13:18:23.945Z,102454.47
2023-02-09T13:20:57.528Z,102451.28
2023-02-09T13:23:33.680Z,102453.78
2023-02-09T13:26:22.599Z,102449.88
2023-02-09T13:28:49.566Z,102444.53
2023-02-09T13:31:26.395Z,102446.09
2023-02-09T13:33:58.547Z,102447.03
2023-02-09T13:36:25.574Z,102434.19
2023-02-09T13:38:52.736Z,102426.53
2023-02-09T13:41:36.501Z,102429.63
2023-02-09T13:44:03.576Z,102432.03
2023-02-09T13:46:34.982Z,102434.91
2023-02-09T13:49:19.270Z,102430.09
2023-02-09T13:51:46.278Z,102429.03
2023-02-09T13:54:20.493Z,102426.53
2023-02-09T13:56:47.252Z,102424.28
2023-02-09T13:59:18.061Z,102426.88
2023-02-09T14:01:48.260Z,102426.88
2023-02-09T14:04:25.490Z,102429.84
2023-02-09T14:07:10.217Z,102431.56
2023-02-09T14:09:49.118Z,102429.47
2023-02-09T14:12:43.534Z,102425.59
2023-02-09T14:15:31.928Z,102435.97
2023-02-09T14:17:58.536Z,102440.50
2023-02-09T14:20:25.607Z,102440.41
2023-02-09T14:23:00.965Z,102446.63
2023-02-09T14:25:29.787Z,102443.16
2023-02-09T14:27:57.169Z,102440.03
2023-02-09T14:30:32.150Z,102437.00
2023-02-09T14:33:01.781Z,102438.50
2023-02-09T14:35:40.664Z,102430.66
2023-02-09T14:38:42.352Z,102428.22
2023-02-09T14:41:26.553Z,102415.06
2023-02-09T14:44:22.555Z,102429.31
2023-02-09T14:46:49.253Z,102428.31
2023-02-09T14:49:16.146Z,102433.78
2023-02-09T14:51:43.756Z,102425.44
2023-02-09T14:54:18.989Z,102424.16
2023-02-09T14:56:46.046Z,102430.00
2023-02-09T14:59:16.956Z,102441.09
2023-02-09T15:01:44.291Z,102436.22
2023-02-09T15:04:10.885Z,102437.09
2023-02-09T15:06:39.198Z,102435.63
2023-02-09T15:09:06.965Z,102430.59
2023-02-09T15:11:53.105Z,102424.78
2023-02-09T15:14:24.558Z,102448.13
2023-02-09T15:16:51.879Z,102447.28
2023-02-09T15:19:21.996Z,102440.22
2023-02-09T15:22:05.264Z,102443.63
2023-02-09T15:24:33.967Z,102444.69
2023-02-09T15:27:01.827Z,102447.38
2023-02-09T15:29:28.948Z,102448.59
2023-02-09T15:31:56.080Z,102441.44
2023-02-09T15:34:23.312Z,102441.88
2023-02-09T15:36:50.797Z,102443.69
2023-02-09T15:39:23.527Z,102443.06
2023-02-09T15:42:09.560Z,102455.38
2023-02-09T15:44:55.294Z,102461.13
2023-02-09T15:47:40.837Z,102470.34
2023-02-09T15:50:07.887Z,102470.25
2023-02-09T15:52:35.005Z,102468.69
2023-02-09T15:55:02.425Z,102467.38
2023-02-09T15:57:29.455Z,102478.59
2023-02-09T15:59:56.844Z,102483.16
2023-02-09T16:02:24.031Z,102486.13
2023-02-09T16:04:51.060Z,102487.91
2023-02-09T16:07:26.107Z,102477.56
2023-02-09T16:09:53.408Z,102486.91
2023-02-09T16:12:20.715Z,102489.88
2023-02-09T16:14:47.997Z,102498.00
2023-02-09T16:17:15.030Z,102507.91
2023-02-09T16:19:42.097Z,102515.63
2023-02-09T16:22:09.230Z,102511.19
2023-02-09T16:24:45.115Z,102519.25
2023-02-09T16:27:21.978Z,102526.25
2023-02-09T16:29:49.084Z,102541.41
2023-02-09T16:32:18.726Z,102537.22
2023-02-09T16:34:46.285Z,102543.19
2023-02-09T16:37:20.033Z,102546.56
2023-02-09T16:39:47.299Z,102552.06
2023-02-09T16:42:16.052Z,102559.81
2023-02-09T16:44:43.881Z,102561.34
2023-02-09T16:47:26.271Z,102564.50
2023-02-09T16:50:00.762Z,102564.28
2023-02-09T16:52:30.172Z,102558.03
2023-02-09T16:55:00.970Z,102558.69
2023-02-09T16:57:29.117Z,102558.25
2023-02-09T16:59:56.497Z,102553.78
2023-02-09T17:02:34.211Z,102564.06
2023-02-09T17:05:04.020Z,102558.25
2023-02-09T17:07:48.765Z,102550.09
2023-02-09T17:10:23.073Z,102552.66
2023-02-09T17:12:53.497Z,102551.19
2023-02-09T17:15:31.724Z,102547.75
2023-02-09T17:18:08.827Z,102554.66
2023-02-09T17:20:44.637Z,102556.34
2023-02-09T17:23:23.110Z,102562.38
2023-02-09T17:25:51.777Z,102572.34
2023-02-09T17:28:19.521Z,102568.75
2023-02-09T17:30:48.271Z,102565.28
2023-02-09T17:33:24.680Z,102574.56
2023-02-09T17:38:44.924Z,102570.66
2023-02-09T17:41:21.229Z,102567.72
2023-02-09T17:43:50.765Z,102576.03
2023-02-09T17:46:19.108Z,102578.00
2023-02-09T17:48:47.565Z,102579.91
2023-02-09T17:51:29.834Z,102575.66
2023-02-09T17:53:57.085Z,102576.13
2023-02-09T17:56:24.076Z,102577.91
2023-02-09T17:58:51.262Z,102581.84
2023-02-09T18:01:25.349Z,102587.28
2023-02-09T18:03:58.767Z,102596.69
2023-02-09T18:06:35.526Z,102606.22
2023-02-09T18:09:04.789Z,102602.84
2023-02-09T18:11:56.930Z,102612.72
2023-02-09T18:14:25.130Z,102606.97
2023-02-09T18:16:52.753Z,102610.13
2023-02-09T18:19:20.080Z,102618.38
2023-02-09T18:21:51.772Z,102612.13
2023-02-09T18:24:20.349Z,102615.72
2023-02-09T18:26:47.853Z,102616.19
2023-02-09T18:29:14.626Z,102624.56
2023-02-09T18:31:41.485Z,102627.91
2023-02-09T18:34:08.337Z,102626.88
2023-02-09T18:36:35.655Z,102627.81
2023-02-09T18:39:02.491Z,102625.56
2023-02-09T18:41:29.230Z,102625.88
2023-02-09T18:43:56.265Z,102626.66
2023-02-09T18:46:25.289Z,102628.91
2023-02-09T18:48:52.078Z,102633.94
2023-02-09T18:51:18.755Z,102633.53
2023-02-09T18:53:45.391Z,102631.91
2023-02-09T18:56:22.418Z,102631.25
2023-02-09T18:58:52.581Z,102639.22
2023-02-09T19:01:21.306Z,102630.94
2023-02-09T19:03:52.311Z,102639.44
2023-02-09T19:06:20.856Z,102656.09
2023-02-09T19:08:50.130Z,102650.84
2023-02-09T19:11:18.518Z,102653.63
2023-02-09T19:14:08.217Z,102659.78
2023-02-09T19:16:37.994Z,102669.19
2023-02-09T19:19:04.764Z,102667.94
2023-02-09T19:21:32.278Z,102671.00
2023-02-09T19:23:58.918Z,102669.84
2023-02-09T19:26:25.642Z,102670.72
2023-02-09T19:28:52.232Z,102664.25
2023-02-09T19:31:18.885Z,102666.47
2023-02-09T19:33:45.556Z,102683.28
2023-02-09T19:36:12.506Z,102682.03
2023-02-09T19:38:39.081Z,102677.00
2023-02-09T19:41:11.850Z,102684.75
2023-02-09T19:43:39.839Z,102693.13
2023-02-09T19:46:08.140Z,102696.16
2023-02-09T19:48:34.765Z,102691.34
2023-02-09T19:51:04.306Z,102698.94
2023-02-09T19:53:31.533Z,102693.78
2023-02-09T19:55:58.152Z,102692.34
2023-02-09T19:58:24.867Z,102698.63
2023-02-09T20:00:53.435Z,102710.91
2023-02-09T20:03:20.064Z,102713.84
2023-02-09T20:05:47.031Z,102700.31
2023-02-09T20:08:17.061Z,102701.41
2023-02-09T20:10:46.817Z,102702.41
2023-02-09T20:13:14.989Z,102704.19
2023-02-09T20:15:43.859Z,102706.75
2023-02-09T20:18:13.380Z,102704.97
2023-02-09T20:20:43.088Z,102698.38
2023-02-09T20:23:10.092Z,102699.56
2023-02-09T20:25:40.385Z,102691.72
2023-02-09T20:28:07.246Z,102694.31
2023-02-09T20:30:34.223Z,102694.56
2023-02-09T20:33:01.105Z,102694.44
2023-02-09T20:35:27.664Z,102688.91
2023-02-09T20:37:54.307Z,102695.28
2023-02-09T20:40:21.600Z,102689.84
2023-02-09T20:43:07.210Z,102691.28
2023-02-09T20:45:52.406Z,102690.66
2023-02-09T20:48:19.736Z,102692.19
2023-02-09T20:50:46.728Z,102687.50
2023-02-09T20:53:13.539Z,102680.56
2023-02-09T20:55:40.274Z,102683.09
2023-02-09T20:58:06.999Z,102688.63
2023-02-09T21:00:33.794Z,102682.53
2023-02-09T21:03:00.682Z,102685.38
2023-02-09T21:05:27.498Z,102674.31
2023-02-09T21:07:54.258Z,102677.22
2023-02-09T21:10:21.784Z,102667.38
2023-02-09T21:12:48.379Z,102677.53
2023-02-09T21:15:15.954Z,102666.47
2023-02-09T21:17:47.837Z,102664.00
2023-02-09T21:20:16.764Z,102675.44
2023-02-09T21:22:43.443Z,102670.16
2023-02-09T21:25:10.598Z,102669.84
2023-02-09T21:27:40.535Z,102673.09
2023-02-09T21:30:07.452Z,102673.31
2023-02-09T21:32:35.027Z,102679.66
2023-02-09T21:35:02.007Z,102670.19
2023-02-09T21:37:32.179Z,102666.94
2023-02-09T21:40:02.979Z,102682.59
2023-02-09T21:42:31.207Z,102683.28
2023-02-09T21:44:59.466Z,102679.91
2023-02-09T21:47:31.456Z,102681.47
2023-02-09T21:49:58.861Z,102689.41
2023-02-09T21:52:26.550Z,102683.91
2023-02-09T21:54:53.852Z,102680.56
2023-02-09T21:57:21.312Z,102677.22
2023-02-09T21:59:48.130Z,102671.41
2023-02-09T22:02:17.184Z,102670.75
2023-02-09T22:04:45.593Z,102674.34
2023-02-09T22:07:13.401Z,102672.53
2023-02-09T22:09:41.756Z,102675.00
2023-02-09T22:12:08.928Z,102679.03
2023-02-09T22:14:35.702Z,102680.91
2023-02-09T22:17:02.551Z,102680.66
2023-02-09T22:19:29.205Z,102680.25
2023-02-09T22:21:57.947Z,102685.63
2023-02-09T22:24:25.149Z,102699.53
2023-02-09T22:26:51.903Z,102692.03
2023-02-09T22:29:19.406Z,102690.41
2023-02-09T22:31:46.333Z,102684.16
2023-02-09T22:34:13.330Z,102688.63
2023-02-09T22:36:40.057Z,102682.56
2023-02-09T22:39:07.524Z,102695.56
2023-02-09T22:41:34.953Z,102696.72
2023-02-09T22:44:12.918Z,102691.56
2023-02-09T22:46:41.372Z,102698.94
2023-02-09T22:49:19.415Z,102714.69
2023-02-09T22:51:47.871Z,102714.13
2023-02-09T22:54:16.447Z,102716.03
2023-02-09T22:56:43.487Z,102724.88
2023-02-09T22:59:12.606Z,102713.69
2023-02-09T23:01:39.709Z,102734.72
2023-02-09T23:04:06.452Z,102726.22
2023-02-09T23:06:33.116Z,102730.47
2023-02-09T23:09:02.522Z,102735.88
2023-02-09T23:11:30.662Z,102740.75
2023-02-09T23:14:09.201Z,102739.09
2023-02-09T23:16:38.181Z,102743.94
2023-02-09T23:19:08.399Z,102745.06
2023-02-09T23:21:38.148Z,102755.31
2023-02-09T23:24:05.603Z,102765.31
2023-02-09T23:26:32.822Z,102759.91
2023-02-09T23:29:01.697Z,102756.56
2023-02-09T23:31:28.755Z,102762.19
2023-02-09T23:33:55.800Z,102761.03
2023-02-09T23:36:25.166Z,102765.59
2023-02-09T23:38:57.065Z,102771.22
2023-02-09T23:41:24.942Z,102778.53
2023-02-09T23:43:52.607Z,102773.91
2023-02-09T23:46:22.025Z,102770.09
2023-02-09T23:48:49.024Z,102775.69
2023-02-09T23:51:19.311Z,102776.66
2023-02-09T23:53:47.567Z,102769.88
2023-02-09T23:56:15.692Z,102778.03
2023-02-09T23:58:45.178Z,102777.78
